createdAt,value
2023-10-24T00:01:39.750Z,61.90
2023-10-24T00:04:23.641Z,66.40
2023-10-24T00:07:53.697Z,65.30
2023-10-24T00:11:09.315Z,60.40
2023-10-24T00:14:10.062Z,62.70
2023-10-24T00:17:27.783Z,64.70
2023-10-24T00:20:14.308Z,64.60
2023-10-24T00:23:58.487Z,59.50
2023-10-24T00:27:38.378Z,60.50
2023-10-24T00:31:43.947Z,57.80
2023-10-24T00:34:47.357Z,60.20
2023-10-24T00:38:09.909Z,62.20
2023-10-24T00:41:35.690Z,61.30
2023-10-24T00:44:34.229Z,57.30
2023-10-24T00:48:02.946Z,55.80
2023-10-24T00:55:06.011Z,56.50
2023-10-24T00:58:13.360Z,57.80
2023-10-24T01:01:42.234Z,53.20
2023-10-24T01:04:49.039Z,56.10
2023-10-24T01:08:14.590Z,58.30
2023-10-24T01:12:38.306Z,52.90
2023-10-24T01:19:34.011Z,53.10
2023-10-24T01:22:46.496Z,55.30
2023-10-24T01:26:18.642Z,49.00
2023-10-24T01:29:16.821Z,46.30
2023-10-24T01:36:25.347Z,46.80
2023-10-24T01:39:41.772Z,48.80
2023-10-24T01:42:56.514Z,50.30
2023-10-24T01:45:50.908Z,47.40
2023-10-24T01:48:46.211Z,45.20
2023-10-24T01:52:34.167Z,66.40
2023-10-24T01:56:37.420Z,42.50
2023-10-24T01:59:55.383Z,45.40
2023-10-24T02:05:52.601Z,45.40
2023-10-24T02:08:59.829Z,48.60
2023-10-24T02:11:42.994Z,43.80
2023-10-24T02:15:34.444Z,43.70
2023-10-24T02:18:38.694Z,42.50
2023-10-24T02:21:38.126Z,65.70
2023-10-24T02:25:06.031Z,43.90
2023-10-24T02:29:01.254Z,80.80
2023-10-24T02:31:52.916Z,63.40
2023-10-24T02:35:17.933Z,130.00
2023-10-24T02:42:54.996Z,38.80
2023-10-24T02:46:07.436Z,56.40
2023-10-24T02:49:13.621Z,53.80
2023-10-24T02:52:36.408Z,50.00
2023-10-24T02:55:54.765Z,263.00
2023-10-24T02:58:49.655Z,129.30
2023-10-24T03:01:26.690Z,42.70
2023-10-24T03:04:40.575Z,40.00
2023-10-24T03:08:40.804Z,31.60
2023-10-24T03:11:51.252Z,33.60
2023-10-24T03:14:50.405Z,35.30
2023-10-24T03:18:20.224Z,36.20
2023-10-24T03:21:36.830Z,30.80
2023-10-24T03:27:55.045Z,29.20
2023-10-24T03:30:44.640Z,37.20
2023-10-24T03:33:49.021Z,30.60
2023-10-24T03:37:28.549Z,62.30
2023-10-24T03:43:21.318Z,49.50
2023-10-24T03:47:03.913Z,45.90
2023-10-24T03:50:07.744Z,131.80
2023-10-24T03:53:04.521Z,103.30
2023-10-24T03:56:37.204Z,86.00
2023-10-24T04:00:26.417Z,50.40
2023-10-24T04:03:28.140Z,58.00
2023-10-24T04:13:44.900Z,50.20
2023-10-24T04:16:55.634Z,45.00
2023-10-24T04:20:39.078Z,38.00
2023-10-24T04:24:18.698Z,41.60
2023-10-24T04:27:31.454Z,59.00
2023-10-24T04:30:39.309Z,46.90
2023-10-24T04:34:01.708Z,55.60
2023-10-24T04:36:44.759Z,55.30
2023-10-24T04:39:45.760Z,38.40
2023-10-24T04:42:56.012Z,38.60
2023-10-24T04:46:05.733Z,34.70
2023-10-24T04:49:09.942Z,44.10
2023-10-24T04:52:22.593Z,37.20
2023-10-24T04:55:25.434Z,33.00
2023-10-24T04:58:43.490Z,32.90
2023-10-24T05:01:45.077Z,29.20
2023-10-24T05:04:47.825Z,30.00
2023-10-24T05:07:55.591Z,34.20
2023-10-24T05:14:57.428Z,29.80
2023-10-24T05:18:18.121Z,31.70
2023-10-24T05:21:29.045Z,44.30
2023-10-24T05:24:38.670Z,32.10
2023-10-24T05:27:36.805Z,31.80
2023-10-24T05:30:46.027Z,28.50
2023-10-24T05:33:43.087Z,39.90
2023-10-24T05:36:46.687Z,64.80
2023-10-24T05:40:42.536Z,82.50
2023-10-24T05:44:11.290Z,34.50
2023-10-24T05:50:10.563Z,30.50
2023-10-24T05:51:30.707Z,28.80
2023-10-24T05:54:31.926Z,29.90
2023-10-24T05:57:21.880Z,33.20
2023-10-24T06:02:58.224Z,27.80
2023-10-24T06:06:11.292Z,30.00
2023-10-24T06:09:16.883Z,29.10
2023-10-24T06:12:31.063Z,36.70
2023-10-24T06:15:36.954Z,30.10
2023-10-24T06:21:53.867Z,32.90
2023-10-24T06:25:20.703Z,26.40
2023-10-24T06:28:09.966Z,29.80
2023-10-24T06:30:57.264Z,27.40
2023-10-24T06:33:38.916Z,28.60
2023-10-24T06:36:19.866Z,24.70
2023-10-24T06:39:14.895Z,28.30
2023-10-24T06:42:02.386Z,28.00
2023-10-24T06:45:00.992Z,26.90
2023-10-24T06:47:59.027Z,24.90
2023-10-24T06:50:49.934Z,22.60
2023-10-24T06:53:31.883Z,27.70
2023-10-24T06:56:12.543Z,23.90
2023-10-24T06:59:11.236Z,23.40
2023-10-24T07:02:41.795Z,24.40
2023-10-24T07:05:22.096Z,25.70
2023-10-24T07:08:09.239Z,24.10
2023-10-24T07:10:44.839Z,29.30
2023-10-24T07:13:30.993Z,25.70
2023-10-24T07:20:22.006Z,26.00
2023-10-24T07:26:50.692Z,19.50
2023-10-24T07:29:47.172Z,23.20
2023-10-24T07:32:50.188Z,22.10
2023-10-24T07:35:53.690Z,20.80
2023-10-24T07:38:46.648Z,18.90
2023-10-24T07:44:23.466Z,23.40
2023-10-24T07:47:37.490Z,18.80
2023-10-24T07:50:26.258Z,17.60
2023-10-24T07:56:16.617Z,20.60
2023-10-24T07:59:21.648Z,19.70
2023-10-24T08:02:31.606Z,24.10
2023-10-24T08:05:04.620Z,20.50
2023-10-24T08:07:43.874Z,23.70
2023-10-24T08:10:28.695Z,22.90
2023-10-24T08:13:25.994Z,25.50
2023-10-24T08:16:22.811Z,21.80
2023-10-24T08:19:02.598Z,20.80
2023-10-24T08:21:47.045Z,24.30
2023-10-24T08:24:31.824Z,24.10
2023-10-24T08:27:24.407Z,22.10
2023-10-24T08:29:56.151Z,22.20
2023-10-24T08:32:54.416Z,24.00
2023-10-24T08:35:57.343Z,21.60
2023-10-24T08:38:36.684Z,18.90
2023-10-24T08:41:16.238Z,18.50
2023-10-24T08:44:02.295Z,21.20
2023-10-24T08:46:37.688Z,16.90
2023-10-24T08:49:23.895Z,21.60
2023-10-24T08:52:26.579Z,22.90
2023-10-24T08:55:14.351Z,19.40
2023-10-24T08:57:53.116Z,17.30
2023-10-24T09:00:58.189Z,18.20
2023-10-24T09:03:39.971Z,19.90
2023-10-24T09:06:37.505Z,19.10
2023-10-24T09:09:14.605Z,19.00
2023-10-24T09:12:06.756Z,24.50
2023-10-24T09:14:55.124Z,21.50
2023-10-24T09:17:46.637Z,19.50
2023-10-24T09:20:35.465Z,21.90
2023-10-24T09:23:13.142Z,19.80
2023-10-24T09:25:49.999Z,18.60
2023-10-24T09:28:31.534Z,23.30
2023-10-24T09:31:09.373Z,21.00
2023-10-24T09:33:58.906Z,19.50
2023-10-24T09:36:34.491Z,18.50
2023-10-24T09:39:28.309Z,17.00
2023-10-24T09:42:15.535Z,16.70
2023-10-24T09:47:45.428Z,17.10
2023-10-24T09:50:27.192Z,10.10
2023-10-24T09:53:05.164Z,15.60
2023-10-24T09:56:01.803Z,14.90
2023-10-24T09:59:21.862Z,19.60
2023-10-24T10:06:07.577Z,15.20
2023-10-24T10:13:04.778Z,22.30
2023-10-24T10:16:16.789Z,18.90
2023-10-24T10:19:31.272Z,18.70
2023-10-24T10:22:52.286Z,14.10
2023-10-24T10:26:03.549Z,11.50
2023-10-24T10:30:16.598Z,16.90
2023-10-24T10:42:22.223Z,19.10
2023-10-24T10:45:45.506Z,15.90
2023-10-24T10:49:15.103Z,13.70
2023-10-24T10:53:15.541Z,12.30
2023-10-24T10:57:26.046Z,12.20
2023-10-24T11:00:55.732Z,18.60
2023-10-24T11:08:03.475Z,16.10
2023-10-24T11:15:05.767Z,10.70
2023-10-24T11:21:01.725Z,17.80
2023-10-24T11:24:46.452Z,12.70
2023-10-24T11:41:54.985Z,14.80
2023-10-24T11:47:57.972Z,11.10
2023-10-24T11:51:13.260Z,11.20
2023-10-24T11:54:54.746Z,12.70
2023-10-24T11:58:36.984Z,14.40
2023-10-24T12:01:46.375Z,12.00
2023-10-24T12:04:40.439Z,10.80
2023-10-24T12:07:18.081Z,10.70
2023-10-24T12:09:57.661Z,14.60
2023-10-24T12:12:49.421Z,12.80
2023-10-24T12:15:41.536Z,10.80
2023-10-24T12:19:01.805Z,12.20
2023-10-24T12:22:04.384Z,13.20
2023-10-24T12:25:41.459Z,11.50
2023-10-24T12:28:48.316Z,10.20
2023-10-24T12:32:06.879Z,11.80
2023-10-24T12:34:55.818Z,12.00
2023-10-24T12:37:40.893Z,14.40
2023-10-24T12:40:51.126Z,13.40
2023-10-24T12:43:46.817Z,13.30
2023-10-24T12:46:22.863Z,13.30
2023-10-24T12:49:43.700Z,15.70
2023-10-24T12:52:51.501Z,12.30
2023-10-24T12:55:25.717Z,12.30
2023-10-24T12:58:18.797Z,11.90
2023-10-24T13:01:00.064Z,12.30
2023-10-24T13:03:37.949Z,12.30
2023-10-24T13:06:15.009Z,9.90
2023-10-24T13:08:48.321Z,19.50
2023-10-24T13:14:00.385Z,15.80
2023-10-24T13:19:20.958Z,13.10
2023-10-24T13:21:59.461Z,14.10
2023-10-24T13:24:38.380Z,11.40
2023-10-24T13:27:14.963Z,14.40
2023-10-24T13:33:03.582Z,16.10
2023-10-24T13:36:11.465Z,20.00
2023-10-24T13:38:57.026Z,22.70
2023-10-24T13:42:09.114Z,21.00
2023-10-24T13:44:41.191Z,21.10
2023-10-24T13:47:15.942Z,17.60
2023-10-24T13:49:49.345Z,19.60
2023-10-24T13:52:31.962Z,19.30
2023-10-24T13:55:16.474Z,14.50
2023-10-24T13:58:06.981Z,15.60
2023-10-24T14:00:45.192Z,14.90
2023-10-24T14:03:59.668Z,18.10
2023-10-24T14:06:37.648Z,10.90
2023-10-24T14:09:25.274Z,12.30
2023-10-24T14:12:03.896Z,20.00
2023-10-24T14:15:13.405Z,14.40
2023-10-24T14:18:00.534Z,17.10
2023-10-24T14:21:09.258Z,10.60
2023-10-24T14:23:41.487Z,14.00
2023-10-24T14:26:22.280Z,11.00
2023-10-24T14:28:57.358Z,11.00
2023-10-24T14:32:01.442Z,12.40
2023-10-24T14:34:48.276Z,13.20
2023-10-24T14:37:28.677Z,10.30
2023-10-24T14:43:37.932Z,16.20
2023-10-24T14:46:12.449Z,16.80
2023-10-24T15:14:30.405Z,19.50
2023-10-24T15:37:59.859Z,11.80
2023-10-24T15:46:09.264Z,15.20
2023-10-24T15:48:51.270Z,19.20
2023-10-24T15:51:52.387Z,20.60
2023-10-24T15:54:34.307Z,12.90
2023-10-24T15:57:15.081Z,17.00
2023-10-24T15:59:52.876Z,17.80
2023-10-24T16:02:37.798Z,19.20
2023-10-24T16:05:13.632Z,18.30
2023-10-24T16:08:08.786Z,13.10
2023-10-24T16:10:56.610Z,16.00
2023-10-24T16:14:03.317Z,14.80
2023-10-24T16:17:20.337Z,15.10
2023-10-24T16:20:09.364Z,13.60
2023-10-24T16:22:57.441Z,14.00
2023-10-24T16:26:07.873Z,16.70
2023-10-24T16:29:44.620Z,17.80
2023-10-24T16:33:02.514Z,18.40
2023-10-24T16:43:25.882Z,20.10
2023-10-24T16:52:57.144Z,22.80
2023-10-24T16:55:54.296Z,18.40
2023-10-24T16:59:16.776Z,18.20
2023-10-24T17:02:59.120Z,17.30
2023-10-24T17:05:59.118Z,15.10
2023-10-24T17:09:05.937Z,22.40
2023-10-24T17:12:05.066Z,21.50
2023-10-24T17:16:07.306Z,21.10
2023-10-24T17:18:55.744Z,18.80
2023-10-24T17:21:47.213Z,22.50
2023-10-24T17:24:59.193Z,19.20
2023-10-24T17:28:23.220Z,23.00
2023-10-24T17:32:47.596Z,23.20
2023-10-24T17:35:12.291Z,17.70
2023-10-24T17:39:31.675Z,21.30
2023-10-24T17:46:51.746Z,23.80
2023-10-24T17:53:45.761Z,33.70
2023-10-24T17:56:51.580Z,29.50
2023-10-24T18:03:48.036Z,24.50
2023-10-24T18:15:01.480Z,19.00
2023-10-24T18:18:10.591Z,15.10
2023-10-24T18:22:13.673Z,14.70
2023-10-24T18:26:01.223Z,14.70
2023-10-24T18:32:46.105Z,18.20
2023-10-24T18:40:11.186Z,17.90
2023-10-24T18:43:45.787Z,17.00
2023-10-24T19:03:58.928Z,15.40
2023-10-24T19:08:10.028Z,16.90
2023-10-24T19:11:31.364Z,19.70
2023-10-24T19:15:13.420Z,18.20
2023-10-24T20:16:35.585Z,16.30
2023-10-24T20:20:35.413Z,15.60
2023-10-24T20:24:42.597Z,13.60
2023-10-24T20:32:18.703Z,17.00
2023-10-24T21:14:35.494Z,17.70
2023-10-24T21:21:27.693Z,15.10
2023-10-24T21:24:24.262Z,17.70
2023-10-24T21:27:42.370Z,16.60
2023-10-24T21:38:38.970Z,21.00
2023-10-24T21:54:36.892Z,16.00
2023-10-24T21:57:48.876Z,17.00
2023-10-24T22:40:08.977Z,21.20
2023-10-24T22:43:43.631Z,21.60
2023-10-24T22:51:28.963Z,21.10
2023-10-24T23:12:26.765Z,18.80
2023-10-24T23:16:02.620Z,22.80
2023-10-24T23:30:45.557Z,20.90
2023-10-24T23:34:53.092Z,23.10
2023-10-24T23:38:30.134Z,21.40
2023-10-24T23:42:02.952Z,18.80
2023-10-24T23:53:48.798Z,20.90
